AirNav   Duncan Aviation - Near you to keep you flying
 
 390 users online  

KPTW Heritage Field Airport
Pottstown, Pennsylvania, USA

GOING TO POTTSTOWN?


FAA INFORMATION EFFECTIVE 03 NOVEMBER 2022

Location

FAA Identifier: PTW
Lat/Long: 40-14-22.4000N 075-33-24.2000W
40-14.373333N 075-33.403333W
40.2395556,-75.5567222
(estimated)
Elevation: 308.2 ft. / 93.9 m (surveyed)
Variation: 12W (1990)
From city: 3 miles E of POTTSTOWN, PA
Time zone: UTC -5 (UTC -4 during Daylight Saving Time)
Zip code: 19464

Airport Operations

Airport use: Open to the public
Activation date: 04/1938
Control tower: no
ARTCC: NEW YORK CENTER
FSS: WILLIAMSPORT FLIGHT SERVICE STATION
NOTAMs facility: PTW (NOTAM-D service available)
Attendance: MON-FRI 0700-2000, ALL SAT-SUN 0700-1800
Wind indicator: lighted
Segmented circle: yes
Lights: ACTVT MIRL RWY 10/28 - 122.7.
Beacon: white-green (lighted land airport)
ACTVT ROTG BCN - 122.7.
Landing fee: yes

Airport Communications

CTAF/UNICOM: 122.7
WX ASOS: 119.425 (610-495-0823)
PHILADELPHIA APPROACH: 126.85
PHILADELPHIA DEPARTURE: 126.85
CLEARANCE DELIVERY: 118.55
WX AWOS-3 at UKT (14 nm NE): 119.475 (215-538-7610)
WX AWOS-3 at LOM (15 nm SE): 118.925 (215-646-1068)
WX AWOS-3T at OQN (15 nm S): 121.4 ((610) 692-6190)
WX AWOS-3 at CKZ (15 nm NE): 126.325 (215-257-7291)
  • CLEARANCE DELIVERY PHILADELPHIA APCH TF 800-354-9884.

Nearby radio navigation aids

VOR radial/distance  VOR name  Freq  Var
PTWr018/1.1POTTSTOWN VORTAC116.5009W
MXEr024/20.0MODENA VORTAC113.2009W
ETXr173/21.3EAST TEXAS VOR/DME110.2009W
FJCr199/29.6ALLENTOWN VORTAC117.5010W
ARDr278/29.7YARDLEY VOR/DME108.2010W
DQOr014/33.8DUPONT VORTAC114.0010W
LRPr087/34.4LANCASTER VOR/DME117.3009W
OODr352/38.0WOODSTOWN VORTAC112.8010W

Airport Services

Fuel available: 100LL JET-A
Parking: hangars and tiedowns
Airframe service: MAJOR
Powerplant service: MAJOR
Bottled oxygen: NONE
Bulk oxygen: NONE

Runway Information

Runway 10/28

Dimensions: 3371 x 75 ft. / 1027 x 23 m
Surface: asphalt, in good condition
Runway edge lights: medium intensity
RUNWAY 10  RUNWAY 28
Latitude: 40-14.345305N40-14.402280N
Longitude: 075-33.763608W075-33.042933W
Elevation: 307.0 ft.302.6 ft.
Traffic pattern: leftright
Runway heading: 096 magnetic, 084 true276 magnetic, 264 true
Displaced threshold: no190 ft.
Markings: nonprecision, in good conditionnonprecision, in good condition
Visual slope indicator: 2-light PAPI on left (3.00 degrees glide path)2-light PAPI on left (3.00 degrees glide path)
Runway end identifier lights: yesyes
Touchdown point: yes, no lightsyes, no lights
Instrument approach: LOCALIZER
Obstructions: 61 ft. trees, 1162 ft. from runway, 163 ft. left of centerline, 16:1 slope to clear42 ft. tree, 577 ft. from runway, 281 ft. right of centerline, 8:1 slope to clear
10 FT ROAD 0-200 FT FM THR.

Airport Ownership and Management from official FAA records

Ownership: Privately-owned
Owner: LIMERICK AVIATION LP
600 HORIZON DR
CHALFONT, PA 18914
Phone 215-997-8850
Manager: CHRISTOPHER JORDAN
3310 WEST RIDGE PIKE
POTTSTOWN, PA 19464
Phone (610) 495-7000

Airport Operational Statistics

Aircraft based on the field: 106
Single engine airplanes: 88
Multi engine airplanes: 11
Jet airplanes: 1
Helicopters: 4
Gliders airplanes: 1
Ultralights: 1
    
Aircraft operations: avg 64/day *
78% local general aviation
11% transient general aviation
11% air taxi
<1% military
* for 12-month period ending 19 January 2022

Additional Remarks

LGTD & MKD 507 FT AGL (769 FT MSL) STACK 6000 FT W OF RWY 10.
BIRDS & DEER ON & INVOF ARPT.
FOR CD CTC PHILADELPHIA APCH AT 800-354-9884.

Instrument Procedures

NOTE: All procedures below are presented as PDF files. If you need a reader for these files, you should download the free Adobe Reader.

NOT FOR NAVIGATION. Please procure official charts for flight.
FAA instrument procedures published for use from 03 November 2022 at 0901Z to 01 December 2022 at 0900Z.

 
IAPs - Instrument Approach Procedures
RNAV (GPS) RWY 28   download (231KB)
RNAV (GPS)-A   download (172KB)
LOC RWY 28   download (224KB)
VOR/DME-A   download (175KB)
NOTE: Special Alternate Minimums apply   download (123KB)
NOTE: Special Take-Off Minimums/Departure Procedures apply   download (428KB)

Other nearby airports with instrument procedures:

N47 - Pottstown Municipal Airport (5 nm W)
KUKT - Quakertown Airport (14 nm NE)
KLOM - Wings Field Airport (15 nm SE)
KOQN - Brandywine Regional Airport (15 nm S)
KCKZ - Pennridge Airport (15 nm NE)
 
Loc | Ops | Rwys | IFR | FBO | Links
Com | Nav | Svcs | Stats | Notes
Area around KPTW (Heritage Field Airport)
 
Road maps at: MapQuest Bing Google
 
Aerial photo
WARNING: Photo may not be current or correct
Aerial photo of KPTW (Heritage Field Airport)
Photo by Aerial Sky Shots Photography - Amanda Rouiller
Photo taken 31-May-2014
looking north-northeast from 1,000FT.

Do you have a better or more recent aerial photo of Heritage Field Airport that you would like to share? If so, please send us your photo.

 
Sectional chart

 
Airport distance calculator
Flying to Heritage Field Airport? Find the distance to fly.

From to KPTW

Sunrise and sunset
Times for 01-Dec-2022
 Local
(UTC-5)
 Zulu
(UTC)
Morning civil twilight06:3611:36
Sunrise07:0712:07
Sunset16:3621:36
Evening civil twilight17:0622:06

Current date and time
Zulu (UTC)  01-Dec-2022 07:30:59
Local (UTC-5)  01-Dec-2022 02:30:59
 
METAR
KPTW 302254Z AUTO 29006KT 10SM BKN080 OVC095 09/03 A2983 RMK AO2 SLP100 T00940033
KUKT 
14nm NE 
010715Z AUTO VRB06G15KT 10SM CLR 01/M08 A3003 RMK A01
KLOM 
15nm SE 
010715Z AUTO 29006KT 10SM CLR 01/M07 A3005 RMK AO2 T00131074
KOQN 
15nm S 
010715Z AUTO 27004KT 10SM CLR 01/M06 A3005 RMK AO2
KCKZ 
15nm NE 
010715Z AUTO 29012G17KT 260V320 10SM SCT048 00/M08 A3003 RMK AO2
TAF
KRDG 
20nm W 
010521Z 0106/0206 29014G24KT P6SM SCT050 FM012200 29008KT P6SM SKC FM020200 VRB03KT P6SM SKC
NOTAMs
Click for the latest NOTAMs
NOTAMs are issued by the DoD/FAA and will open in a separate window not controlled by AirNav.

 

 
 

FBO, Fuel Providers, and Aircraft Ground Support

  
 Business Name 
 
 Contact 
 
 Services / Description 
 
Fuel Prices
 
Comments
  
 Pitcairn Aviation LLC
UNICOM 122.70
610-495-7000
[email]
Airport management, Aviation fuel, Aircraft ground handling, Aircraft parking (ramp or tiedown), Hangars, GPU / Power cart, Passenger terminal and lounge, ...
 
U.S. Government AIR Card   WingPoints™ Rewards   Crew car   Enterprise Rent-A-Car  
 
More info about Pitcairn Aviation LLC
Phillips 66
100LL Jet A
FS $7.07 $6.83 
SS $6.97 --- 
GUARANTEED
 
   2 read write
FS=Full service
SS=Self service
Update Fuel Prices
 

Where to Eat: Catering, Restaurants, Food shops

  
 Business Name 
 
 Contact 
 
 Services / Description 
 
Distance
 
Comments
  
Airport Restaurant 610-495-7626
no information available

If you are affiliated with Airport Restaurant and would like to show here your services, contact info, web link, logo, and more, click here
0.5 miles  
   write
 

Would you like to see your business listed on this page?

 If your business provides an interesting product or service to pilots, flight crews, aircraft, or users of the Heritage Field Airport, you should consider listing it here.  To start the listing process, click on the button below
 
Add a business
 

Other Pages about Heritage Field Airport

www.heritagefield.org
 
Update a link
 
Copyright © AirNav, LLC. All rights reserved. Privacy Policy  Contact